createdAt,value
2022-08-28T00:00:15.316Z,3.80
2022-08-28T00:02:46.598Z,1.70
2022-08-28T00:05:20.270Z,2.80
2022-08-28T00:07:48.886Z,6.53
2022-08-28T00:10:19.683Z,1.50
2022-08-28T00:12:52.974Z,3.00
2022-08-28T00:15:25.554Z,3.97
2022-08-28T00:17:54.279Z,1.43
2022-08-28T00:20:25.402Z,4.43
2022-08-28T00:22:55.486Z,3.33
2022-08-28T00:25:26.294Z,1.90
2022-08-28T00:27:55.525Z,3.73
2022-08-28T00:30:27.831Z,1.67
2022-08-28T00:32:58.355Z,1.30
2022-08-28T00:35:29.246Z,1.77
2022-08-28T00:37:58.217Z,2.47
2022-08-28T00:40:32.857Z,3.90
2022-08-28T00:43:02.783Z,3.67
2022-08-28T00:45:37.267Z,2.47
2022-08-28T00:48:07.434Z,3.27
2022-08-28T00:50:51.958Z,3.20
2022-08-28T00:53:23.429Z,1.50
2022-08-28T00:55:53.820Z,1.63
2022-08-28T00:58:22.257Z,1.30
2022-08-28T01:00:50.831Z,2.03
2022-08-28T01:03:19.262Z,1.37
2022-08-28T01:05:55.168Z,4.10
2022-08-28T01:08:23.590Z,2.97
2022-08-28T01:10:56.231Z,1.00
2022-08-28T01:13:26.824Z,1.93
2022-08-28T01:15:58.223Z,1.00
2022-08-28T01:18:30.392Z,1.47
2022-08-28T01:21:06.655Z,2.10
2022-08-28T01:23:52.242Z,2.07
2022-08-28T01:26:21.583Z,1.50
2022-08-28T01:28:50.713Z,1.77
2022-08-28T01:31:19.828Z,2.70
2022-08-28T01:33:48.947Z,1.17
2022-08-28T01:36:18.162Z,1.60
2022-08-28T01:38:51.552Z,1.23
2022-08-28T01:41:20.861Z,1.60
2022-08-28T01:43:49.255Z,1.10
2022-08-28T01:46:18.920Z,2.27
2022-08-28T01:48:47.503Z,1.87
2022-08-28T01:51:16.236Z,1.70
2022-08-28T01:53:45.324Z,1.40
2022-08-28T01:56:18.305Z,1.53
2022-08-28T01:58:48.302Z,2.07
2022-08-28T02:01:19.465Z,1.50
2022-08-28T02:03:48.455Z,1.40
2022-08-28T02:06:18.074Z,2.00
2022-08-28T02:08:46.738Z,2.60
2022-08-28T02:11:17.219Z,2.93
2022-08-28T02:13:45.747Z,1.60
2022-08-28T02:16:19.323Z,1.60
2022-08-28T02:18:47.985Z,2.03
2022-08-28T02:21:17.288Z,1.77
2022-08-28T02:23:46.288Z,3.23
2022-08-28T02:26:17.299Z,1.60
2022-08-28T02:28:46.163Z,2.50
2022-08-28T02:31:14.672Z,1.70
2022-08-28T02:33:45.827Z,2.93
2022-08-28T02:36:15.975Z,2.43
2022-08-28T02:38:45.294Z,1.77
2022-08-28T02:41:13.892Z,3.37
2022-08-28T02:43:43.782Z,1.70
2022-08-28T02:46:12.544Z,2.90
2022-08-28T02:48:41.757Z,1.77
2022-08-28T02:51:13.346Z,2.57
2022-08-28T02:53:42.718Z,1.70
2022-08-28T02:56:11.978Z,1.73
2022-08-28T02:58:41.302Z,1.70
2022-08-28T03:01:13.582Z,1.90
2022-08-28T03:03:43.330Z,2.00
2022-08-28T03:06:13.588Z,2.70
2022-08-28T03:08:43.175Z,3.20
2022-08-28T03:11:12.892Z,3.00
2022-08-28T03:13:41.971Z,4.03
2022-08-28T03:16:11.864Z,2.07
2022-08-28T03:18:41.532Z,3.47
2022-08-28T03:21:10.568Z,2.90
2022-08-28T03:23:39.532Z,2.80
2022-08-28T03:26:10.568Z,2.53
2022-08-28T03:28:42.778Z,4.03
2022-08-28T03:31:15.777Z,3.43
2022-08-28T03:33:44.638Z,3.37
2022-08-28T03:36:15.556Z,4.17
2022-08-28T03:38:44.156Z,3.83
2022-08-28T03:41:13.382Z,3.80
2022-08-28T03:43:42.442Z,4.83
2022-08-28T03:46:17.465Z,3.77
2022-08-28T03:48:46.496Z,4.37
2022-08-28T03:51:16.831Z,3.53
2022-08-28T03:53:47.024Z,8.87
2022-08-28T03:56:18.903Z,7.23
2022-08-28T03:58:47.375Z,5.20
2022-08-28T04:01:17.245Z,5.00
2022-08-28T04:03:45.872Z,4.83
2022-08-28T04:06:14.983Z,4.83
2022-08-28T04:08:43.637Z,3.27
2022-08-28T04:11:12.331Z,5.20
2022-08-28T04:13:41.739Z,4.23
2022-08-28T04:16:12.715Z,5.40
2022-08-28T04:18:44.508Z,3.27
2022-08-28T04:21:15.001Z,4.20
2022-08-28T04:23:45.004Z,4.53
2022-08-28T04:26:15.800Z,3.13
2022-08-28T04:28:45.084Z,4.33
2022-08-28T04:31:14.968Z,4.03
2022-08-28T04:33:45.649Z,3.87
2022-08-28T04:36:16.408Z,6.27
2022-08-28T04:38:45.066Z,4.50
2022-08-28T04:41:16.831Z,4.10
2022-08-28T04:43:45.827Z,4.83
2022-08-28T04:46:16.127Z,4.20
2022-08-28T04:48:46.348Z,5.07
2022-08-28T04:51:15.358Z,5.17
2022-08-28T04:53:44.818Z,5.87
2022-08-28T04:56:15.223Z,6.13
2022-08-28T04:58:45.519Z,10.43
2022-08-28T05:01:18.691Z,6.57
2022-08-28T05:03:49.847Z,6.47
2022-08-28T05:06:18.571Z,7.10
2022-08-28T05:08:47.032Z,6.03
2022-08-28T05:11:32.771Z,8.00
2022-08-28T05:14:05.469Z,6.27
2022-08-28T05:16:35.442Z,9.27
2022-08-28T05:19:05.296Z,5.60
2022-08-28T05:21:33.731Z,6.40
2022-08-28T05:24:02.252Z,5.63
2022-08-28T05:26:30.818Z,6.23
2022-08-28T05:29:00.049Z,5.37
2022-08-28T05:31:30.007Z,6.17
2022-08-28T05:33:59.707Z,4.70
2022-08-28T05:36:33.141Z,4.73
2022-08-28T05:39:03.829Z,4.80
2022-08-28T05:41:32.972Z,6.53
2022-08-28T05:44:03.141Z,5.20
2022-08-28T05:46:32.184Z,5.00
2022-08-28T05:49:00.837Z,3.93
2022-08-28T05:51:31.635Z,4.30
2022-08-28T05:54:00.058Z,5.70
2022-08-28T05:56:30.884Z,5.87
2022-08-28T05:59:01.554Z,6.67
2022-08-28T06:01:32.507Z,7.23
2022-08-28T06:04:04.178Z,4.90
2022-08-28T06:06:35.609Z,4.70
2022-08-28T06:09:07.688Z,3.50
2022-08-28T06:11:38.739Z,5.63
2022-08-28T06:14:17.397Z,3.33
2022-08-28T06:16:48.772Z,4.23
2022-08-28T06:19:18.060Z,4.47
2022-08-28T06:21:48.779Z,3.90
2022-08-28T06:24:17.196Z,3.60
2022-08-28T06:26:46.144Z,3.60
2022-08-28T06:29:18.454Z,4.37
2022-08-28T06:31:54.488Z,3.50
2022-08-28T06:34:22.997Z,3.97
2022-08-28T06:36:54.335Z,4.07
2022-08-28T06:39:24.020Z,3.63
2022-08-28T06:41:53.745Z,3.17
2022-08-28T06:44:23.416Z,3.60
2022-08-28T06:46:54.802Z,4.47
2022-08-28T06:49:23.786Z,2.70
2022-08-28T06:51:53.743Z,2.57
2022-08-28T06:54:23.694Z,2.97
2022-08-28T06:56:52.835Z,2.50
2022-08-28T06:59:21.398Z,2.60
2022-08-28T07:01:49.941Z,2.80
2022-08-28T07:04:18.504Z,2.20
2022-08-28T07:06:53.808Z,2.30
2022-08-28T07:09:25.247Z,3.23
2022-08-28T07:11:54.466Z,2.67
2022-08-28T07:14:23.332Z,2.90
2022-08-28T07:16:54.515Z,3.57
2022-08-28T07:19:22.928Z,3.83
2022-08-28T07:21:51.382Z,2.20
2022-08-28T07:24:20.215Z,2.37
2022-08-28T07:26:50.159Z,2.70
2022-08-28T07:29:19.965Z,4.67
2022-08-28T07:31:50.983Z,2.97
2022-08-28T07:34:21.282Z,2.97
2022-08-28T07:36:52.344Z,2.87
2022-08-28T07:39:20.863Z,2.77
2022-08-28T07:41:50.872Z,2.10
2022-08-28T07:44:37.381Z,3.43
2022-08-28T07:47:08.647Z,2.20
2022-08-28T07:49:37.340Z,2.30
2022-08-28T07:52:07.224Z,2.17
2022-08-28T07:54:36.994Z,2.90
2022-08-28T07:57:09.595Z,3.20
2022-08-28T07:59:38.379Z,2.70
2022-08-28T08:02:08.091Z,2.70
2022-08-28T08:04:37.054Z,2.10
2022-08-28T08:07:06.110Z,2.83
2022-08-28T08:09:39.368Z,2.00
2022-08-28T08:12:10.525Z,3.20
2022-08-28T08:14:39.300Z,2.60
2022-08-28T08:17:08.191Z,2.63
2022-08-28T08:19:37.695Z,2.20
2022-08-28T08:22:06.260Z,3.10
2022-08-28T08:24:35.394Z,2.80
2022-08-28T08:27:04.211Z,2.57
2022-08-28T08:29:37.920Z,8.30
2022-08-28T08:32:08.881Z,3.70
2022-08-28T08:34:39.730Z,3.47
2022-08-28T08:37:09.084Z,3.70
2022-08-28T08:39:39.029Z,4.77
2022-08-28T08:42:11.843Z,3.53
2022-08-28T08:44:44.529Z,4.47
2022-08-28T08:47:18.487Z,4.27
2022-08-28T08:49:53.109Z,3.77
2022-08-28T08:52:42.835Z,7.30
2022-08-28T08:55:24.682Z,4.23
2022-08-28T08:58:02.176Z,4.40
2022-08-28T09:00:35.571Z,5.57
2022-08-28T09:03:07.835Z,3.73
2022-08-28T09:05:46.223Z,4.43
2022-08-28T09:08:26.283Z,6.30
2022-08-28T09:11:03.149Z,4.43
2022-08-28T09:13:43.496Z,3.40
2022-08-28T09:16:25.206Z,6.10
2022-08-28T09:18:57.013Z,6.80
2022-08-28T09:21:29.513Z,5.57
2022-08-28T09:24:05.917Z,6.33
2022-08-28T09:26:40.811Z,5.60
2022-08-28T09:29:17.643Z,8.33
2022-08-28T09:31:47.466Z,8.53
2022-08-28T09:34:25.551Z,5.37
2022-08-28T09:36:54.771Z,6.57
2022-08-28T09:39:25.931Z,9.93
2022-08-28T09:42:34.008Z,6.57
2022-08-28T09:45:09.039Z,6.67
2022-08-28T09:47:46.846Z,9.67
2022-08-28T09:50:23.483Z,11.57
2022-08-28T09:52:54.328Z,5.40
2022-08-28T09:55:31.655Z,6.90
2022-08-28T09:58:01.086Z,6.70
2022-08-28T10:00:35.106Z,6.43
2022-08-28T10:03:22.803Z,4.27
2022-08-28T10:06:02.198Z,6.00
2022-08-28T10:08:48.800Z,5.33
2022-08-28T10:11:24.413Z,3.00
2022-08-28T10:14:03.712Z,2.90
2022-08-28T10:16:41.631Z,2.37
2022-08-28T10:19:23.091Z,2.30
2022-08-28T10:22:00.472Z,6.83
2022-08-28T10:24:52.991Z,3.40
2022-08-28T10:27:36.554Z,4.83
2022-08-28T10:30:13.095Z,9.50
2022-08-28T10:33:02.231Z,2.70
2022-08-28T10:35:45.050Z,4.83
2022-08-28T10:38:17.236Z,3.30
2022-08-28T10:40:56.731Z,2.67
2022-08-28T10:43:31.863Z,4.33
2022-08-28T10:46:05.503Z,2.87
2022-08-28T10:48:41.599Z,3.40
2022-08-28T10:51:17.732Z,3.00
2022-08-28T10:53:51.967Z,6.43
2022-08-28T10:56:25.392Z,5.73
2022-08-28T10:58:59.759Z,6.63
2022-08-28T11:01:31.949Z,8.50
2022-08-28T11:04:04.476Z,8.30
2022-08-28T11:06:39.393Z,7.77
2022-08-28T11:09:26.404Z,4.87
2022-08-28T11:12:01.778Z,8.17
2022-08-28T11:14:35.376Z,5.73
2022-08-28T11:17:06.508Z,5.37
2022-08-28T11:20:10.560Z,5.67
2022-08-28T11:22:45.908Z,5.97
2022-08-28T11:25:19.767Z,5.57
2022-08-28T11:28:18.854Z,7.30
2022-08-28T11:30:50.146Z,4.13
2022-08-28T11:33:43.472Z,10.10
2022-08-28T11:36:13.908Z,4.13
2022-08-28T11:39:23.323Z,4.50
2022-08-28T11:42:29.404Z,6.20
2022-08-28T11:44:57.895Z,5.83
2022-08-28T11:47:44.779Z,4.63
2022-08-28T11:50:23.488Z,5.00
2022-08-28T11:53:20.233Z,4.53
2022-08-28T11:56:13.486Z,7.10
2022-08-28T11:58:57.179Z,4.97
2022-08-28T12:01:32.376Z,6.13
2022-08-28T12:04:08.105Z,5.70
2022-08-28T12:07:16.052Z,5.50
2022-08-28T12:09:46.576Z,5.27
2022-08-28T12:12:48.282Z,5.90
2022-08-28T12:15:40.405Z,4.57
2022-08-28T12:18:17.856Z,6.63
2022-08-28T12:21:01.699Z,6.90
2022-08-28T12:23:40.403Z,6.43
2022-08-28T12:26:17.073Z,4.67
2022-08-28T12:28:49.531Z,4.13
2022-08-28T12:31:53.525Z,5.47
2022-08-28T12:34:32.859Z,5.43
2022-08-28T12:37:03.216Z,5.07
2022-08-28T12:39:34.366Z,6.17
2022-08-28T12:42:03.977Z,5.93
2022-08-28T12:44:34.371Z,4.87
2022-08-28T12:47:04.292Z,8.27
2022-08-28T12:49:35.847Z,5.07
2022-08-28T12:52:17.193Z,6.30
2022-08-28T12:54:47.297Z,5.00
2022-08-28T12:57:17.723Z,4.67
2022-08-28T12:59:48.196Z,7.10
2022-08-28T13:02:27.610Z,7.07
2022-08-28T13:04:59.576Z,5.47
2022-08-28T13:07:30.800Z,6.17
2022-08-28T13:10:03.495Z,4.87
2022-08-28T13:12:54.721Z,6.50
2022-08-28T13:15:43.639Z,7.13
2022-08-28T13:18:44.092Z,5.70
2022-08-28T13:21:32.679Z,6.77
2022-08-28T13:24:29.474Z,4.77
2022-08-28T13:27:03.992Z,5.57
2022-08-28T13:29:33.632Z,5.83
2022-08-28T13:32:03.542Z,4.87
2022-08-28T13:34:33.488Z,6.47
2022-08-28T13:37:04.170Z,7.03
2022-08-28T13:39:38.521Z,7.27
2022-08-28T13:42:11.181Z,5.97
2022-08-28T13:44:47.749Z,6.27
2022-08-28T13:47:16.864Z,6.37
2022-08-28T13:49:45.448Z,6.37
2022-08-28T13:52:14.180Z,6.13
2022-08-28T13:54:45.512Z,7.90
2022-08-28T13:57:14.550Z,5.30
2022-08-28T13:59:43.075Z,5.43
2022-08-28T14:02:32.776Z,6.83
2022-08-28T14:05:01.405Z,5.37
2022-08-28T14:07:30.475Z,5.43
2022-08-28T14:10:00.491Z,5.80
2022-08-28T14:12:33.082Z,8.67
2022-08-28T14:15:04.160Z,7.20
2022-08-28T14:17:33.997Z,5.87
2022-08-28T14:20:03.064Z,9.30
2022-08-28T14:22:31.565Z,7.47
2022-08-28T14:25:01.422Z,9.17
2022-08-28T14:27:29.929Z,6.47
2022-08-28T14:29:58.491Z,7.43
2022-08-28T14:32:26.911Z,7.77
2022-08-28T14:34:55.548Z,6.80
2022-08-28T14:37:24.661Z,8.40
2022-08-28T14:39:53.133Z,7.03
2022-08-28T14:42:23.090Z,6.30
2022-08-28T14:44:51.601Z,6.20
2022-08-28T14:47:20.480Z,5.57
2022-08-28T14:49:49.074Z,6.50
2022-08-28T14:52:19.400Z,6.33
2022-08-28T14:54:48.051Z,5.10
2022-08-28T14:57:16.499Z,9.20
2022-08-28T14:59:46.429Z,6.20
2022-08-28T15:02:14.815Z,7.03
2022-08-28T15:04:43.248Z,6.30
2022-08-28T15:07:12.971Z,5.60
2022-08-28T15:09:43.577Z,6.53
2022-08-28T15:12:12.138Z,5.90
2022-08-28T15:14:41.021Z,4.77
2022-08-28T15:17:34.304Z,8.53
2022-08-28T15:20:04.035Z,5.27
2022-08-28T15:22:32.523Z,5.80
2022-08-28T15:25:00.984Z,5.43
2022-08-28T15:27:29.499Z,4.50
2022-08-28T15:29:57.939Z,6.23
2022-08-28T15:32:27.998Z,6.33
2022-08-28T15:34:56.620Z,5.20
2022-08-28T15:37:25.099Z,7.33
2022-08-28T15:40:11.429Z,6.60
2022-08-28T15:42:39.949Z,5.17
2022-08-28T15:45:08.819Z,6.40
2022-08-28T15:47:38.812Z,4.80
2022-08-28T15:50:08.539Z,6.57
2022-08-28T15:52:40.136Z,6.60
2022-08-28T15:55:11.245Z,7.37
2022-08-28T15:57:39.799Z,5.97
2022-08-28T16:00:10.600Z,7.70
2022-08-28T16:02:40.601Z,6.87
2022-08-28T16:05:10.025Z,5.90
2022-08-28T16:07:38.998Z,5.87
2022-08-28T16:10:10.267Z,7.53
2022-08-28T16:12:39.608Z,6.70
2022-08-28T16:15:09.712Z,6.30
2022-08-28T16:17:38.870Z,6.43
2022-08-28T16:20:12.984Z,4.87
2022-08-28T16:22:41.976Z,5.80
2022-08-28T16:25:13.205Z,6.03
2022-08-28T16:27:41.692Z,6.67
2022-08-28T16:30:15.631Z,5.70
2022-08-28T16:32:46.725Z,6.00
2022-08-28T16:35:17.684Z,6.13
2022-08-28T16:37:46.188Z,8.47
2022-08-28T16:40:15.324Z,8.83
2022-08-28T16:42:51.273Z,8.37
2022-08-28T16:45:21.345Z,5.60
2022-08-28T16:47:50.463Z,5.37
2022-08-28T16:50:20.668Z,4.80
2022-08-28T16:52:49.160Z,6.03
2022-08-28T16:55:17.699Z,6.53
2022-08-28T16:57:46.051Z,6.47
2022-08-28T17:00:15.024Z,7.80
2022-08-28T17:02:44.222Z,5.73
2022-08-28T17:05:15.454Z,5.47
2022-08-28T17:07:45.280Z,5.90
2022-08-28T17:10:16.999Z,5.50
2022-08-28T17:12:45.674Z,7.27
2022-08-28T17:15:14.947Z,6.37
2022-08-28T17:17:43.786Z,6.17
2022-08-28T17:20:33.535Z,6.23
2022-08-28T17:23:03.124Z,5.73
2022-08-28T17:25:31.923Z,6.67
2022-08-28T17:28:01.073Z,6.10
2022-08-28T17:30:29.612Z,6.53
2022-08-28T17:32:58.240Z,6.10
2022-08-28T17:35:26.708Z,8.33
2022-08-28T17:37:55.808Z,7.40
2022-08-28T17:40:26.177Z,5.80
2022-08-28T17:42:54.724Z,8.23
2022-08-28T17:45:23.255Z,6.73
2022-08-28T17:47:52.670Z,5.77
2022-08-28T17:50:21.849Z,5.30
2022-08-28T17:52:50.401Z,6.43
2022-08-28T17:55:21.064Z,7.77
2022-08-28T17:57:50.985Z,7.17
2022-08-28T18:00:19.764Z,7.33
2022-08-28T18:02:51.746Z,6.70
2022-08-28T18:05:20.281Z,6.77
2022-08-28T18:07:49.359Z,5.87
2022-08-28T18:10:17.877Z,9.73
2022-08-28T18:12:47.756Z,7.60
2022-08-28T18:15:17.924Z,6.63
2022-08-28T18:17:50.567Z,5.67
2022-08-28T18:20:20.112Z,7.50
2022-08-28T18:22:48.639Z,8.67
2022-08-28T18:25:31.404Z,6.07
2022-08-28T18:27:59.960Z,7.97
2022-08-28T18:30:30.528Z,6.37
2022-08-28T18:32:59.148Z,5.60
2022-08-28T18:35:31.652Z,7.87
2022-08-28T18:38:01.392Z,6.53
2022-08-28T18:40:31.068Z,5.40
2022-08-28T18:42:59.968Z,6.30
2022-08-28T18:45:31.643Z,7.37
2022-08-28T18:48:01.566Z,7.77
2022-08-28T18:50:31.423Z,6.77
2022-08-28T18:53:01.032Z,5.87
2022-08-28T18:55:31.142Z,6.27
2022-08-28T18:58:02.179Z,6.20
2022-08-28T19:00:32.954Z,8.20
2022-08-28T19:03:01.636Z,7.80
2022-08-28T19:05:30.658Z,6.93
2022-08-28T19:08:01.979Z,9.97
2022-08-28T19:10:34.877Z,8.83
2022-08-28T19:13:04.657Z,9.30
2022-08-28T19:15:36.205Z,6.07
2022-08-28T19:18:05.486Z,8.00
2022-08-28T19:20:34.859Z,6.27
2022-08-28T19:23:03.568Z,6.57
2022-08-28T19:25:32.263Z,6.07
2022-08-28T19:28:02.471Z,5.80
2022-08-28T19:30:33.530Z,7.50
2022-08-28T19:33:05.205Z,8.17
2022-08-28T19:35:34.868Z,5.33
2022-08-28T19:38:03.532Z,7.43
2022-08-28T19:40:33.592Z,7.33
2022-08-28T19:43:02.327Z,8.53
2022-08-28T19:45:34.107Z,6.37
2022-08-28T19:48:04.503Z,8.17
2022-08-28T19:50:32.917Z,6.27
2022-08-28T19:53:01.483Z,6.80
2022-08-28T19:55:30.595Z,5.40
2022-08-28T19:57:59.261Z,7.67
2022-08-28T20:00:29.627Z,8.57
2022-08-28T20:02:58.248Z,6.43
2022-08-28T20:05:28.347Z,5.70
2022-08-28T20:07:56.896Z,5.83
2022-08-28T20:10:27.730Z,7.00
2022-08-28T20:12:56.416Z,6.07
2022-08-28T20:15:25.088Z,7.73
2022-08-28T20:17:53.606Z,8.63
2022-08-28T20:20:26.801Z,7.13
2022-08-28T20:22:59.320Z,7.03
2022-08-28T20:25:27.831Z,5.53
2022-08-28T20:28:00.930Z,5.67
2022-08-28T20:30:30.505Z,7.27
2022-08-28T20:33:00.920Z,4.90
2022-08-28T20:35:29.723Z,7.07
2022-08-28T20:37:59.712Z,7.80
2022-08-28T20:40:28.391Z,7.73
2022-08-28T20:42:57.088Z,7.07
2022-08-28T20:45:25.932Z,8.20
2022-08-28T20:47:54.371Z,7.40
2022-08-28T20:50:23.156Z,6.07
2022-08-28T20:52:51.759Z,10.00
2022-08-28T20:55:21.596Z,7.43
2022-08-28T20:57:50.111Z,6.07
2022-08-28T21:00:18.709Z,6.03
2022-08-28T21:02:47.242Z,9.03
2022-08-28T21:05:15.807Z,5.33
2022-08-28T21:07:44.318Z,5.33
2022-08-28T21:10:12.720Z,4.43
2022-08-28T21:12:42.572Z,4.27
2022-08-28T21:15:13.473Z,3.80
2022-08-28T21:17:42.635Z,4.90
2022-08-28T21:20:13.811Z,4.43
2022-08-28T21:22:42.478Z,4.93
2022-08-28T21:25:12.158Z,4.27
2022-08-28T21:27:44.900Z,3.50
2022-08-28T21:30:17.011Z,5.50
2022-08-28T21:32:45.812Z,3.27
2022-08-28T21:35:15.185Z,4.73
2022-08-28T21:37:43.811Z,3.10
2022-08-28T21:40:14.863Z,3.30
2022-08-28T21:42:44.967Z,6.30
2022-08-28T21:45:13.960Z,3.40
2022-08-28T21:47:43.306Z,6.70
2022-08-28T21:50:12.932Z,5.70
2022-08-28T21:52:41.777Z,3.07
2022-08-28T21:55:13.516Z,5.67
2022-08-28T21:57:42.816Z,4.10
2022-08-28T22:00:17.319Z,6.47
2022-08-28T22:02:46.098Z,3.07
2022-08-28T22:05:17.370Z,5.80
2022-08-28T22:07:46.060Z,3.97
2022-08-28T22:10:15.299Z,3.40
2022-08-28T22:12:43.802Z,4.43
2022-08-28T22:15:13.749Z,3.93
2022-08-28T22:17:42.243Z,4.70
2022-08-28T22:20:11.525Z,5.17
2022-08-28T22:22:57.539Z,4.77
2022-08-28T22:25:26.094Z,5.67
2022-08-28T22:27:54.959Z,6.13
2022-08-28T22:30:25.011Z,3.47
2022-08-28T22:32:53.906Z,5.47
2022-08-28T22:35:22.917Z,6.27
2022-08-28T22:37:51.381Z,3.77
2022-08-28T22:40:20.230Z,3.50
2022-08-28T22:42:49.703Z,3.90
2022-08-28T22:45:18.423Z,3.63
2022-08-28T22:47:49.661Z,4.70
2022-08-28T22:50:18.880Z,4.60
2022-08-28T22:52:48.358Z,4.33
2022-08-28T22:55:18.166Z,5.13
2022-08-28T22:57:47.394Z,3.37
2022-08-28T23:00:19.478Z,4.37
2022-08-28T23:02:50.144Z,4.00
2022-08-28T23:05:18.951Z,7.70
2022-08-28T23:07:48.325Z,3.63
2022-08-28T23:10:16.896Z,4.43
2022-08-28T23:12:45.439Z,4.10
2022-08-28T23:15:17.153Z,3.43
2022-08-28T23:17:46.115Z,5.33
2022-08-28T23:20:20.107Z,5.47
2022-08-28T23:22:48.580Z,4.63
2022-08-28T23:25:20.432Z,3.83
2022-08-28T23:27:49.591Z,7.60
2022-08-28T23:30:19.870Z,3.97
2022-08-28T23:32:48.279Z,4.17
2022-08-28T23:35:19.752Z,4.37
2022-08-28T23:37:52.039Z,4.10
2022-08-28T23:40:23.517Z,5.10
2022-08-28T23:42:52.835Z,9.23
2022-08-28T23:45:21.995Z,3.80
2022-08-28T23:47:50.948Z,6.57
2022-08-28T23:50:22.926Z,9.60
2022-08-28T23:52:51.570Z,4.83
2022-08-28T23:55:20.970Z,3.83
2022-08-28T23:57:52.291Z,3.47
